sensor_id;sensor_type;location;lat;lon;timestamp;pressure;altitude;pressure_sealevel;temperature
76583;BMP280;65462;52.148;7.940;2022-12-04T00:02:21;101051.81;;;0.90
76583;BMP280;65462;52.148;7.940;2022-12-04T00:04:47;101048.66;;;0.88
76583;BMP280;65462;52.148;7.940;2022-12-04T00:07:12;101052.44;;;0.97
76583;BMP280;65462;52.148;7.940;2022-12-04T00:09:38;101050.78;;;0.91
76583;BMP280;65462;52.148;7.940;2022-12-04T00:12:03;101046.38;;;0.92
76583;BMP280;65462;52.148;7.940;2022-12-04T00:14:28;101048.97;;;0.92
76583;BMP280;65462;52.148;7.940;2022-12-04T00:16:53;101048.66;;;0.88
76583;BMP280;65462;52.148;7.940;2022-12-04T00:19:19;101040.84;;;0.88
76583;BMP280;65462;52.148;7.940;2022-12-04T00:21:44;101039.28;;;0.87
76583;BMP280;65462;52.148;7.940;2022-12-04T00:24:10;101034.84;;;0.88
76583;BMP280;65462;52.148;7.940;2022-12-04T00:26:35;101037.16;;;0.84
76583;BMP280;65462;52.148;7.940;2022-12-04T00:29:00;101043.22;;;0.90
76583;BMP280;65462;52.148;7.940;2022-12-04T00:31:27;101033.06;;;0.88
76583;BMP280;65462;52.148;7.940;2022-12-04T00:33:53;101033.63;;;0.90
76583;BMP280;65462;52.148;7.940;2022-12-04T00:36:21;101049.22;;;0.90
76583;BMP280;65462;52.148;7.940;2022-12-04T00:38:46;101034.38;;;0.91
76583;BMP280;65462;52.148;7.940;2022-12-04T00:41:14;101025.25;;;0.88
76583;BMP280;65462;52.148;7.940;2022-12-04T00:43:40;101028.72;;;0.94
76583;BMP280;65462;52.148;7.940;2022-12-04T00:46:05;101025.88;;;0.95
76583;BMP280;65462;52.148;7.940;2022-12-04T00:48:31;101026.69;;;0.96
76583;BMP280;65462;52.148;7.940;2022-12-04T00:51:10;101022.75;;;0.93
76583;BMP280;65462;52.148;7.940;2022-12-04T00:53:37;101031.09;;;0.95
76583;BMP280;65462;52.148;7.940;2022-12-04T00:56:04;101026.03;;;0.89
76583;BMP280;65462;52.148;7.940;2022-12-04T00:58:30;101020.91;;;0.94
76583;BMP280;65462;52.148;7.940;2022-12-04T01:01:01;101031.88;;;0.96
76583;BMP280;65462;52.148;7.940;2022-12-04T01:03:28;101025.09;;;0.95
76583;BMP280;65462;52.148;7.940;2022-12-04T01:05:53;101038.81;;;0.90
76583;BMP280;65462;52.148;7.940;2022-12-04T01:08:18;101038.34;;;0.93
76583;BMP280;65462;52.148;7.940;2022-12-04T01:10:43;101026.69;;;0.96
76583;BMP280;65462;52.148;7.940;2022-12-04T01:13:09;101027.47;;;0.96
76583;BMP280;65462;52.148;7.940;2022-12-04T01:15:38;101026.19;;;0.99
76583;BMP280;65462;52.148;7.940;2022-12-04T01:18:04;101021.00;;;0.99
76583;BMP280;65462;52.148;7.940;2022-12-04T01:20:29;101033.22;;;0.98
76583;BMP280;65462;52.148;7.940;2022-12-04T01:22:54;101029.13;;;1.02
76583;BMP280;65462;52.148;7.940;2022-12-04T01:25:19;101023.59;;;0.99
76583;BMP280;65462;52.148;7.940;2022-12-04T01:27:45;101038.88;;;0.95
76583;BMP280;65462;52.148;7.940;2022-12-04T01:30:11;101026.69;;;0.96
76583;BMP280;65462;52.148;7.940;2022-12-04T01:32:36;101023.28;;;0.95
76583;BMP280;65462;52.148;7.940;2022-12-04T01:35:01;101027.22;;;0.98
76583;BMP280;65462;52.148;7.940;2022-12-04T01:37:29;101036.59;;;0.99
76583;BMP280;65462;52.148;7.940;2022-12-04T01:39:55;101028.47;;;0.95
76583;BMP280;65462;52.148;7.940;2022-12-04T01:42:20;101036.59;;;0.99
76583;BMP280;65462;52.148;7.940;2022-12-04T01:47:48;101029.03;;;0.97
76583;BMP280;65462;52.148;7.940;2022-12-04T01:50:13;101024.88;;;0.96
76583;BMP280;65462;52.148;7.940;2022-12-04T01:52:39;101035.00;;;0.98
76583;BMP280;65462;52.148;7.940;2022-12-04T01:55:05;101029.03;;;0.97
76583;BMP280;65462;52.148;7.940;2022-12-04T01:57:31;101027.47;;;0.96
76583;BMP280;65462;52.148;7.940;2022-12-04T02:00:06;101030.28;;;0.95
76583;BMP280;65462;52.148;7.940;2022-12-04T02:02:35;101031.88;;;0.96
76583;BMP280;65462;52.148;7.940;2022-12-04T02:05:02;101026.41;;;0.97
76583;BMP280;65462;52.148;7.940;2022-12-04T02:07:28;101037.06;;;0.96
76583;BMP280;65462;52.148;7.940;2022-12-04T02:09:54;101028.47;;;0.95
76583;BMP280;65462;52.148;7.940;2022-12-04T02:12:31;101030.06;;;0.96
76583;BMP280;65462;52.148;7.940;2022-12-04T02:15:08;101022.31;;;1.01
76583;BMP280;65462;52.148;7.940;2022-12-04T02:17:58;101022.31;;;1.01
76583;BMP280;65462;52.148;7.940;2022-12-04T02:20:38;101022.28;;;0.96
76583;BMP280;65462;52.148;7.940;2022-12-04T02:31:35;101018.72;;;1.02
76583;BMP280;65462;52.148;7.940;2022-12-04T02:36:51;101021.00;;;0.99
76583;BMP280;65462;52.148;7.940;2022-12-04T02:39:21;101016.59;;;0.99
76583;BMP280;65462;52.148;7.940;2022-12-04T02:41:58;101015.25;;;0.97
76583;BMP280;65462;52.148;7.940;2022-12-04T02:44:33;101012.09;;;0.95
76583;BMP280;65462;52.148;7.940;2022-12-04T02:47:02;101007.16;;;0.93
76583;BMP280;65462;52.148;7.940;2022-12-04T02:49:36;101011.56;;;0.93
76583;BMP280;65462;52.148;7.940;2022-12-04T02:52:09;101004.53;;;0.93
76583;BMP280;65462;52.148;7.940;2022-12-04T02:54:38;101013.91;;;0.94
76583;BMP280;65462;52.148;7.940;2022-12-04T02:57:09;101007.91;;;0.94
76583;BMP280;65462;52.148;7.940;2022-12-04T02:59:40;101009.75;;;0.93
76583;BMP280;65462;52.148;7.940;2022-12-04T03:02:27;101013.91;;;0.94
76583;BMP280;65462;52.148;7.940;2022-12-04T03:04:56;101008.16;;;0.92
76583;BMP280;65462;52.148;7.940;2022-12-04T03:07:28;101005.31;;;0.94
76583;BMP280;65462;52.148;7.940;2022-12-04T03:09:58;101002.41;;;0.90
76583;BMP280;65462;52.148;7.940;2022-12-04T03:12:39;101002.69;;;0.94
76583;BMP280;65462;52.148;7.940;2022-12-04T03:15:17;101014.94;;;0.93
76583;BMP280;65462;52.148;7.940;2022-12-04T03:17:51;100999.56;;;0.92
76583;BMP280;65462;52.148;7.940;2022-12-04T03:20:18;101006.09;;;0.94
76583;BMP280;65462;52.148;7.940;2022-12-04T03:22:47;101004.53;;;0.93
76583;BMP280;65462;52.148;7.940;2022-12-04T03:25:14;101012.88;;;0.95
76583;BMP280;65462;52.148;7.940;2022-12-04T03:27:53;101007.38;;;0.92
76583;BMP280;65462;52.148;7.940;2022-12-04T03:30:22;101007.38;;;0.92
76583;BMP280;65462;52.148;7.940;2022-12-04T03:32:55;101010.28;;;0.95
76583;BMP280;65462;52.148;7.940;2022-12-04T03:38:13;101008.78;;;0.99
76583;BMP280;65462;52.148;7.940;2022-12-04T03:48:20;101010.81;;;0.97
76583;BMP280;65462;52.148;7.940;2022-12-04T03:51:18;101020.47;;;0.97
76583;BMP280;65462;52.148;7.940;2022-12-04T03:53:50;101013.72;;;1.01
76583;BMP280;65462;52.148;7.940;2022-12-04T03:56:28;101011.88;;;0.96
76583;BMP280;65462;52.148;7.940;2022-12-04T03:58:57;101007.25;;;1.03
76583;BMP280;65462;52.148;7.940;2022-12-04T04:01:27;101016.03;;;0.97
76583;BMP280;65462;52.148;7.940;2022-12-04T04:03:55;101016.28;;;0.96
76583;BMP280;65462;52.148;7.940;2022-12-04T04:06:26;101021.16;;;0.92
76583;BMP280;65462;52.148;7.940;2022-12-04T04:08:56;100997.97;;;0.91
76583;BMP280;65462;52.148;7.940;2022-12-04T04:11:28;101003.03;;;0.97
76583;BMP280;65462;52.148;7.940;2022-12-04T04:14:19;100995.16;;;0.92
76583;BMP280;65462;52.148;7.940;2022-12-04T04:17:09;101006.66;;;0.96
76583;BMP280;65462;52.148;7.940;2022-12-04T04:20:08;100997.28;;;0.95
76583;BMP280;65462;52.148;7.940;2022-12-04T04:22:55;101001.00;;;0.99
76583;BMP280;65462;52.148;7.940;2022-12-04T04:25:41;101007.25;;;1.03
76583;BMP280;65462;52.148;7.940;2022-12-04T04:28:32;101008.53;;;1.01
76583;BMP280;65462;52.148;7.940;2022-12-04T04:34:05;101011.28;;;0.94
76583;BMP280;65462;52.148;7.940;2022-12-04T04:36:53;101023.50;;;0.94
76583;BMP280;65462;52.148;7.940;2022-12-04T04:41:58;101006.34;;;0.93
76583;BMP280;65462;52.148;7.940;2022-12-04T04:47:16;101011.06;;;0.96
76583;BMP280;65462;52.148;7.940;2022-12-04T04:49:43;101012.09;;;0.95
76583;BMP280;65462;52.148;7.940;2022-12-04T04:52:10;101017.06;;;0.96
76583;BMP280;65462;52.148;7.940;2022-12-04T04:54:36;101020.19;;;0.98
76583;BMP280;65462;52.148;7.940;2022-12-04T04:57:01;101013.66;;;0.96
76583;BMP280;65462;52.148;7.940;2022-12-04T04:59:27;101027.16;;;0.93
76583;BMP280;65462;52.148;7.940;2022-12-04T05:01:52;101023.50;;;0.94
76583;BMP280;65462;52.148;7.940;2022-12-04T05:04:17;101028.97;;;0.92
76583;BMP280;65462;52.148;7.940;2022-12-04T05:06:43;101023.75;;;0.92
76583;BMP280;65462;52.148;7.940;2022-12-04T05:09:08;101015.25;;;0.97
76583;BMP280;65462;52.148;7.940;2022-12-04T05:11:33;101016.59;;;0.99
76583;BMP280;65462;52.148;7.940;2022-12-04T05:13:58;101014.94;;;0.93
76583;BMP280;65462;52.148;7.940;2022-12-04T05:16:24;101024.56;;;0.93
76583;BMP280;65462;52.148;7.940;2022-12-04T05:18:49;101021.78;;;0.99
76583;BMP280;65462;52.148;7.940;2022-12-04T05:21:33;101023.28;;;0.95
76583;BMP280;65462;52.148;7.940;2022-12-04T05:23:59;101021.38;;;0.91
76583;BMP280;65462;52.148;7.940;2022-12-04T05:26:24;101021.16;;;0.92
76583;BMP280;65462;52.148;7.940;2022-12-04T05:28:49;101011.78;;;0.91
76583;BMP280;65462;52.148;7.940;2022-12-04T05:31:15;101011.56;;;0.93
76583;BMP280;65462;52.148;7.940;2022-12-04T05:33:40;101015.97;;;0.92
76583;BMP280;65462;52.148;7.940;2022-12-04T05:36:07;101018.56;;;0.92
76583;BMP280;65462;52.148;7.940;2022-12-04T05:38:34;101025.03;;;0.90
76583;BMP280;65462;52.148;7.940;2022-12-04T05:41:01;101014.16;;;0.93
76583;BMP280;65462;52.148;7.940;2022-12-04T05:43:27;101017.28;;;0.95
76583;BMP280;65462;52.148;7.940;2022-12-04T05:45:52;101012.09;;;0.95
76583;BMP280;65462;52.148;7.940;2022-12-04T05:48:18;101022.28;;;0.96
76583;BMP280;65462;52.148;7.940;2022-12-04T05:50:43;101012.09;;;0.95
76583;BMP280;65462;52.148;7.940;2022-12-04T05:53:08;101009.50;;;0.95
76583;BMP280;65462;52.148;7.940;2022-12-04T05:55:33;101013.91;;;0.94
76583;BMP280;65462;52.148;7.940;2022-12-04T05:57:59;101009.81;;;0.98
76583;BMP280;65462;52.148;7.940;2022-12-04T06:00:25;101005.41;;;0.99
76583;BMP280;65462;52.148;7.940;2022-12-04T06:02:50;101001.47;;;0.96
76583;BMP280;65462;52.148;7.940;2022-12-04T06:05:16;101001.47;;;0.96
76583;BMP280;65462;52.148;7.940;2022-12-04T06:07:41;100998.53;;;0.93
76583;BMP280;65462;52.148;7.940;2022-12-04T06:10:06;101007.16;;;0.93
76583;BMP280;65462;52.148;7.940;2022-12-04T06:12:32;100999.88;;;0.95
76583;BMP280;65462;52.148;7.940;2022-12-04T06:14:57;101007.69;;;0.95
76583;BMP280;65462;52.148;7.940;2022-12-04T06:17:23;100996.25;;;0.96
76583;BMP280;65462;52.148;7.940;2022-12-04T06:19:48;101000.66;;;0.96
76583;BMP280;65462;52.148;7.940;2022-12-04T06:22:13;100999.66;;;0.97
76583;BMP280;65462;52.148;7.940;2022-12-04T06:24:39;101000.19;;;0.99
76583;BMP280;65462;52.148;7.940;2022-12-04T06:27:04;100999.09;;;0.95
76583;BMP280;65462;52.148;7.940;2022-12-04T06:29:29;101004.28;;;0.95
76583;BMP280;65462;52.148;7.940;2022-12-04T06:31:55;101009.00;;;0.98
76583;BMP280;65462;52.148;7.940;2022-12-04T06:34:20;101011.59;;;0.98
76583;BMP280;65462;52.148;7.940;2022-12-04T06:36:45;101002.69;;;0.94
76583;BMP280;65462;52.148;7.940;2022-12-04T06:39:11;101003.50;;;0.94
76583;BMP280;65462;52.148;7.940;2022-12-04T06:41:36;101001.22;;;0.98
76583;BMP280;65462;52.148;7.940;2022-12-04T06:44:01;100999.41;;;0.98
76583;BMP280;65462;52.148;7.940;2022-12-04T06:46:29;100996.25;;;0.96
76583;BMP280;65462;52.148;7.940;2022-12-04T06:48:55;100998.38;;;0.99
76583;BMP280;65462;52.148;7.940;2022-12-04T06:51:30;101006.19;;;0.99
76583;BMP280;65462;52.148;7.940;2022-12-04T06:53:55;100993.72;;;1.01
76583;BMP280;65462;52.148;7.940;2022-12-04T06:56:23;101002.06;;;1.03
76583;BMP280;65462;52.148;7.940;2022-12-04T06:58:52;100999.72;;;1.02
76583;BMP280;65462;52.148;7.940;2022-12-04T07:01:20;101004.66;;;1.03
76583;BMP280;65462;52.148;7.940;2022-12-04T07:03:46;101003.09;;;1.02
76583;BMP280;65462;52.148;7.940;2022-12-04T07:06:25;101006.25;;;1.04
76583;BMP280;65462;52.148;7.940;2022-12-04T07:08:53;101006.25;;;1.04
76583;BMP280;65462;52.148;7.940;2022-12-04T07:11:20;101006.72;;;1.01
76583;BMP280;65462;52.148;7.940;2022-12-04T07:13:46;101004.38;;;1.00
76583;BMP280;65462;52.148;7.940;2022-12-04T07:16:13;101018.22;;;1.05
76583;BMP280;65462;52.148;7.940;2022-12-04T07:18:39;101017.44;;;1.05
76583;BMP280;65462;52.148;7.940;2022-12-04T07:21:10;101016.66;;;1.04
76583;BMP280;65462;52.148;7.940;2022-12-04T07:23:36;101019.03;;;1.06
76583;BMP280;65462;52.148;7.940;2022-12-04T07:26:09;101025.25;;;1.05
76583;BMP280;65462;52.148;7.940;2022-12-04T07:28:36;101018.22;;;1.05
76583;BMP280;65462;52.148;7.940;2022-12-04T07:31:06;101017.22;;;1.06
76583;BMP280;65462;52.148;7.940;2022-12-04T07:33:31;101015.94;;;1.09
76583;BMP280;65462;52.148;7.940;2022-12-04T07:35:58;101021.94;;;1.10
76583;BMP280;65462;52.148;7.940;2022-12-04T07:38:24;101025.56;;;1.08
76583;BMP280;65462;52.148;7.940;2022-12-04T07:40:49;101026.56;;;1.07
76583;BMP280;65462;52.148;7.940;2022-12-04T07:43:15;101025.25;;;1.05
76583;BMP280;65462;52.148;7.940;2022-12-04T07:45:40;101040.06;;;1.04
76583;BMP280;65462;52.148;7.940;2022-12-04T07:48:05;101023.19;;;1.07
76583;BMP280;65462;52.148;7.940;2022-12-04T07:50:30;101019.25;;;1.04
76583;BMP280;65462;52.148;7.940;2022-12-04T07:52:56;101032.03;;;1.06
76583;BMP280;65462;52.148;7.940;2022-12-04T07:55:21;101028.38;;;1.07
76583;BMP280;65462;52.148;7.940;2022-12-04T07:57:46;101023.97;;;1.07
76583;BMP280;65462;52.148;7.940;2022-12-04T08:00:12;101029.97;;;1.08
76583;BMP280;65462;52.148;7.940;2022-12-04T08:02:37;101019.03;;;1.06
76583;BMP280;65462;52.148;7.940;2022-12-04T08:05:03;101025.78;;;1.07
76583;BMP280;65462;52.148;7.940;2022-12-04T08:07:28;101022.41;;;1.06
76583;BMP280;65462;52.148;7.940;2022-12-04T08:09:53;101024.53;;;1.10
76583;BMP280;65462;52.148;7.940;2022-12-04T08:12:18;101029.16;;;1.07
76583;BMP280;65462;52.148;7.940;2022-12-04T08:14:44;101022.69;;;1.10
76583;BMP280;65462;52.148;7.940;2022-12-04T08:17:09;101035.97;;;1.08
76583;BMP280;65462;52.148;7.940;2022-12-04T08:19:34;101019.66;;;1.13
76583;BMP280;65462;52.148;7.940;2022-12-04T08:22:00;101027.44;;;1.13
76583;BMP280;65462;52.148;7.940;2022-12-04T08:24:25;101027.13;;;1.10
76583;BMP280;65462;52.148;7.940;2022-12-04T08:26:50;101028.22;;;1.14
76583;BMP280;65462;52.148;7.940;2022-12-04T08:29:15;101017.81;;;1.14
76583;BMP280;65462;52.148;7.940;2022-12-04T08:31:41;101021.78;;;1.16
76583;BMP280;65462;52.148;7.940;2022-12-04T08:34:06;101025.38;;;1.15
76583;BMP280;65462;52.148;7.940;2022-12-04T08:36:32;101024.91;;;1.18
76583;BMP280;65462;52.148;7.940;2022-12-04T08:38:58;101021.50;;;1.18
76583;BMP280;65462;52.148;7.940;2022-12-04T08:41:24;101015.28;;;1.19
76583;BMP280;65462;52.148;7.940;2022-12-04T08:43:51;101005.91;;;1.18
76583;BMP280;65462;52.148;7.940;2022-12-04T08:46:18;101022.53;;;1.17
76583;BMP280;65462;52.148;7.940;2022-12-04T08:48:44;101025.13;;;1.17
76583;BMP280;65462;52.148;7.940;2022-12-04T08:51:15;101031.13;;;1.17
76583;BMP280;65462;52.148;7.940;2022-12-04T08:53:41;101022.84;;;1.20
76583;BMP280;65462;52.148;7.940;2022-12-04T08:56:07;101016.63;;;1.21
76583;BMP280;65462;52.148;7.940;2022-12-04T08:58:32;101019.69;;;1.18
76583;BMP280;65462;52.148;7.940;2022-12-04T09:01:11;101033.81;;;1.22
76583;BMP280;65462;52.148;7.940;2022-12-04T09:03:38;101049.66;;;1.21
76583;BMP280;65462;52.148;7.940;2022-12-04T09:06:05;101046.56;;;1.24
76583;BMP280;65462;52.148;7.940;2022-12-04T09:08:31;101028.63;;;1.22
76583;BMP280;65462;52.148;7.940;2022-12-04T09:11:11;101036.16;;;1.24
76583;BMP280;65462;52.148;7.940;2022-12-04T09:13:38;101037.75;;;1.25
76583;BMP280;65462;52.148;7.940;2022-12-04T09:16:09;101038.53;;;1.25
76583;BMP280;65462;52.148;7.940;2022-12-04T09:18:35;101032.59;;;1.30
76583;BMP280;65462;52.148;7.940;2022-12-04T09:21:04;101035.44;;;1.28
76583;BMP280;65462;52.148;7.940;2022-12-04T09:23:30;101034.44;;;1.29
76583;BMP280;65462;52.148;7.940;2022-12-04T09:25:55;101033.66;;;1.29
76583;BMP280;65462;52.148;7.940;2022-12-04T09:28:21;101037.25;;;1.28
76583;BMP280;65462;52.148;7.940;2022-12-04T09:31:00;101044.28;;;1.27
76583;BMP280;65462;52.148;7.940;2022-12-04T09:33:26;101024.75;;;1.25
76583;BMP280;65462;52.148;7.940;2022-12-04T09:35:51;101033.38;;;1.30
76583;BMP280;65462;52.148;7.940;2022-12-04T09:38:17;101031.59;;;1.31
76583;BMP280;65462;52.148;7.940;2022-12-04T09:41:03;101035.75;;;1.32
76583;BMP280;65462;52.148;7.940;2022-12-04T09:43:44;101032.59;;;1.30
76583;BMP280;65462;52.148;7.940;2022-12-04T09:46:18;101043.56;;;1.32
76583;BMP280;65462;52.148;7.940;2022-12-04T09:48:45;101044.06;;;1.34
76583;BMP280;65462;52.148;7.940;2022-12-04T09:51:15;101046.19;;;1.32
76583;BMP280;65462;52.148;7.940;2022-12-04T09:53:44;101051.59;;;1.30
76583;BMP280;65462;52.148;7.940;2022-12-04T09:56:14;101043.00;;;1.30
76583;BMP280;65462;52.148;7.940;2022-12-04T10:01:46;101041.47;;;1.34
76583;BMP280;65462;52.148;7.940;2022-12-04T10:04:12;101044.16;;;1.39
76583;BMP280;65462;52.148;7.940;2022-12-04T10:07:01;101043.13;;;1.40
76583;BMP280;65462;52.148;7.940;2022-12-04T10:09:39;101037.38;;;1.38
76583;BMP280;65462;52.148;7.940;2022-12-04T10:23:49;101025.34;;;1.32
76583;BMP280;65462;52.148;7.940;2022-12-04T10:26:19;101026.16;;;1.32
76583;BMP280;65462;52.148;7.940;2022-12-04T10:28:57;101026.16;;;1.32
76583;BMP280;65462;52.148;7.940;2022-12-04T10:31:24;101037.84;;;1.35
76583;BMP280;65462;52.148;7.940;2022-12-04T10:36:39;101030.06;;;1.35
76583;BMP280;65462;52.148;7.940;2022-12-04T10:39:19;101025.06;;;1.33
76583;BMP280;65462;52.148;7.940;2022-12-04T10:42:23;101027.97;;;1.37
76583;BMP280;65462;52.148;7.940;2022-12-04T10:44:51;101021.44;;;1.34
76583;BMP280;65462;52.148;7.940;2022-12-04T10:47:16;101017.56;;;1.37
76583;BMP280;65462;52.148;7.940;2022-12-04T10:49:42;101028.59;;;1.44
76583;BMP280;65462;52.148;7.940;2022-12-04T10:52:10;101026.22;;;1.42
76583;BMP280;65462;52.148;7.940;2022-12-04T10:54:44;101027.59;;;1.45
76583;BMP280;65462;52.148;7.940;2022-12-04T10:57:13;101015.59;;;1.44
76583;BMP280;65462;52.148;7.940;2022-12-04T10:59:59;101016.91;;;1.46
76583;BMP280;65462;52.148;7.940;2022-12-04T11:02:27;101012.75;;;1.45
76583;BMP280;65462;52.148;7.940;2022-12-04T11:04:57;101018.50;;;1.47
76583;BMP280;65462;52.148;7.940;2022-12-04T11:07:27;101013.00;;;1.44
76583;BMP280;65462;52.148;7.940;2022-12-04T11:09:54;101011.97;;;1.45
76583;BMP280;65462;52.148;7.940;2022-12-04T11:12:21;101000.50;;;1.46
76583;BMP280;65462;52.148;7.940;2022-12-04T11:14:47;101010.69;;;1.47
76583;BMP280;65462;52.148;7.940;2022-12-04T11:17:16;101003.97;;;1.51
76583;BMP280;65462;52.148;7.940;2022-12-04T11:19:42;101008.94;;;1.53
76583;BMP280;65462;52.148;7.940;2022-12-04T11:22:14;101012.81;;;1.50
76583;BMP280;65462;52.148;7.940;2022-12-04T11:24:40;101006.31;;;1.53
76583;BMP280;65462;52.148;7.940;2022-12-04T11:27:15;101006.09;;;1.54
76583;BMP280;65462;52.148;7.940;2022-12-04T11:29:44;101007.66;;;1.55
76583;BMP280;65462;52.148;7.940;2022-12-04T11:32:31;101009.94;;;1.52
76583;BMP280;65462;52.148;7.940;2022-12-04T11:35:12;101007.91;;;1.54
76583;BMP280;65462;52.148;7.940;2022-12-04T11:37:37;100997.00;;;1.57
76583;BMP280;65462;52.148;7.940;2022-12-04T11:40:06;101001.44;;;1.56
76583;BMP280;65462;52.148;7.940;2022-12-04T11:42:38;100987.88;;;1.54
76583;BMP280;65462;52.148;7.940;2022-12-04T11:45:21;100987.63;;;1.56
76583;BMP280;65462;52.148;7.940;2022-12-04T11:48:01;100988.66;;;1.55
76583;BMP280;65462;52.148;7.940;2022-12-04T11:50:46;100990.78;;;1.58
76583;BMP280;65462;52.148;7.940;2022-12-04T11:53:42;100976.00;;;1.63
76583;BMP280;65462;52.148;7.940;2022-12-04T11:59:18;100961.41;;;1.62
76583;BMP280;65462;52.148;7.940;2022-12-04T12:02:01;100959.38;;;1.65
76583;BMP280;65462;52.148;7.940;2022-12-04T12:07:43;100944.56;;;1.70
76583;BMP280;65462;52.148;7.940;2022-12-04T12:19:01;100943.47;;;1.66
76583;BMP280;65462;52.148;7.940;2022-12-04T12:21:38;100957.59;;;1.70
76583;BMP280;65462;52.148;7.940;2022-12-04T12:24:21;100958.91;;;1.73
76583;BMP280;65462;52.148;7.940;2022-12-04T12:26:59;100955.53;;;1.72
76583;BMP280;65462;52.148;7.940;2022-12-04T12:29:56;100950.88;;;1.74
76583;BMP280;65462;52.148;7.940;2022-12-04T12:32:46;100948.50;;;1.73
76583;BMP280;65462;52.148;7.940;2022-12-04T12:35:26;100943.06;;;1.74
76583;BMP280;65462;52.148;7.940;2022-12-04T12:37:59;100955.03;;;1.75
76583;BMP280;65462;52.148;7.940;2022-12-04T12:40:46;100946.72;;;1.78
76583;BMP280;65462;52.148;7.940;2022-12-04T12:43:20;100957.44;;;1.82
76583;BMP280;65462;52.148;7.940;2022-12-04T12:45:59;100939.47;;;1.80
76583;BMP280;65462;52.148;7.940;2022-12-04T12:48:39;100936.88;;;1.80
76583;BMP280;65462;52.148;7.940;2022-12-04T12:51:29;100926.94;;;1.77
76583;BMP280;65462;52.148;7.940;2022-12-04T12:54:03;100923.28;;;1.78
76583;BMP280;65462;52.148;7.940;2022-12-04T12:56:39;100938.41;;;1.81
76583;BMP280;65462;52.148;7.940;2022-12-04T12:59:10;100929.06;;;1.80
76583;BMP280;65462;52.148;7.940;2022-12-04T13:01:55;100924.63;;;1.81
76583;BMP280;65462;52.148;7.940;2022-12-04T13:10:35;100925.41;;;1.81
76583;BMP280;65462;52.148;7.940;2022-12-04T13:12:47;100932.47;;;1.81
76583;BMP280;65462;52.148;7.940;2022-12-04T13:15:15;100914.47;;;1.79
76583;BMP280;65462;52.148;7.940;2022-12-04T13:17:41;100924.91;;;1.84
76583;BMP280;65462;52.148;7.940;2022-12-04T13:20:25;100920.22;;;1.86
76583;BMP280;65462;52.148;7.940;2022-12-04T13:28:24;100906.16;;;1.82
76583;BMP280;65462;52.148;7.940;2022-12-04T13:39:28;100903.81;;;1.86
76583;BMP280;65462;52.148;7.940;2022-12-04T13:42:00;100900.19;;;1.87
76583;BMP280;65462;52.148;7.940;2022-12-04T13:44:27;100905.66;;;1.85
76583;BMP280;65462;52.148;7.940;2022-12-04T13:46:57;100902.00;;;1.86
76583;BMP280;65462;52.148;7.940;2022-12-04T13:49:29;100903.06;;;1.85
76583;BMP280;65462;52.148;7.940;2022-12-04T13:51:57;100905.66;;;1.85
76583;BMP280;65462;52.148;7.940;2022-12-04T13:54:27;100902.78;;;1.87
76583;BMP280;65462;52.148;7.940;2022-12-04T13:56:55;100898.88;;;1.84
76583;BMP280;65462;52.148;7.940;2022-12-04T14:01:57;100902.00;;;1.86
76583;BMP280;65462;52.148;7.940;2022-12-04T14:04:39;100893.16;;;1.87
76583;BMP280;65462;52.148;7.940;2022-12-04T14:09:51;100894.47;;;1.90
76583;BMP280;65462;52.148;7.940;2022-12-04T14:12:24;100891.31;;;1.88
76583;BMP280;65462;52.148;7.940;2022-12-04T14:14:57;100891.31;;;1.88
76583;BMP280;65462;52.148;7.940;2022-12-04T14:17:27;100890.28;;;1.89
76583;BMP280;65462;52.148;7.940;2022-12-04T14:20:29;100890.78;;;1.86
76583;BMP280;65462;52.148;7.940;2022-12-04T14:23:20;100895.25;;;1.85
76583;BMP280;65462;52.148;7.940;2022-12-04T14:25:53;100878.81;;;1.85
76583;BMP280;65462;52.148;7.940;2022-12-04T14:28:35;100886.38;;;1.86
76583;BMP280;65462;52.148;7.940;2022-12-04T14:34:02;100894.72;;;1.88
76583;BMP280;65462;52.148;7.940;2022-12-04T14:36:32;100897.59;;;1.87
76583;BMP280;65462;52.148;7.940;2022-12-04T14:41:26;100905.66;;;1.85
76583;BMP280;65462;52.148;7.940;2022-12-04T14:43:52;100898.91;;;1.89
76583;BMP280;65462;52.148;7.940;2022-12-04T14:46:24;100909.56;;;1.88
76583;BMP280;65462;52.148;7.940;2022-12-04T14:52:15;100918.94;;;1.89
76583;BMP280;65462;52.148;7.940;2022-12-04T14:54:51;100927.00;;;1.87
76583;BMP280;65462;52.148;7.940;2022-12-04T14:57:36;100925.97;;;1.88
76583;BMP280;65462;52.148;7.940;2022-12-04T15:00:14;100934.06;;;1.92
76583;BMP280;65462;52.148;7.940;2022-12-04T15:02:42;100942.16;;;1.90
76583;BMP280;65462;52.148;7.940;2022-12-04T15:05:10;100944.50;;;1.92
76583;BMP280;65462;52.148;7.940;2022-12-04T15:07:46;100949.97;;;1.90
76583;BMP280;65462;52.148;7.940;2022-12-04T15:10:20;100952.78;;;1.89
76583;BMP280;65462;52.148;7.940;2022-12-04T15:13:04;100960.63;;;1.89
76583;BMP280;65462;52.148;7.940;2022-12-04T15:15:29;100951.22;;;1.88
76583;BMP280;65462;52.148;7.940;2022-12-04T15:17:59;100960.88;;;1.87
76583;BMP280;65462;52.148;7.940;2022-12-04T15:20:26;100962.44;;;1.88
76583;BMP280;65462;52.148;7.940;2022-12-04T15:22:54;100960.38;;;1.90
76583;BMP280;65462;52.148;7.940;2022-12-04T15:25:26;100951.22;;;1.88
76583;BMP280;65462;52.148;7.940;2022-12-04T15:28:06;100950.72;;;1.91
76583;BMP280;65462;52.148;7.940;2022-12-04T15:30:34;100949.97;;;1.90
76583;BMP280;65462;52.148;7.940;2022-12-04T15:33:00;100946.78;;;1.88
76583;BMP280;65462;52.148;7.940;2022-12-04T15:35:30;100943.97;;;1.90
76583;BMP280;65462;52.148;7.940;2022-12-04T15:37:56;100940.31;;;1.91
76583;BMP280;65462;52.148;7.940;2022-12-04T15:40:24;100943.66;;;1.86
76583;BMP280;65462;52.148;7.940;2022-12-04T15:42:50;100937.44;;;1.87
76583;BMP280;65462;52.148;7.940;2022-12-04T15:52:58;100933.78;;;1.88
76583;BMP280;65462;52.148;7.940;2022-12-04T15:55:25;100935.06;;;1.86
76583;BMP280;65462;52.148;7.940;2022-12-04T15:57:56;100935.38;;;1.89
76583;BMP280;65462;52.148;7.940;2022-12-04T16:02:48;100921.25;;;1.80
76583;BMP280;65462;52.148;7.940;2022-12-04T16:07:53;100929.09;;;1.85
76583;BMP280;65462;52.148;7.940;2022-12-04T16:12:55;100929.63;;;1.87
76583;BMP280;65462;52.148;7.940;2022-12-04T16:15:22;100921.81;;;1.87
76583;BMP280;65462;52.148;7.940;2022-12-04T16:17:49;100926.75;;;1.89
76583;BMP280;65462;52.148;7.940;2022-12-04T16:20:14;100939.53;;;1.90
76583;BMP280;65462;52.148;7.940;2022-12-04T16:22:40;100930.38;;;1.88